LOT242N EPWA-EPGD
Flight info
| Callsign | LOT242N |
|---|---|
| Flight time | 0h 32m |
| Altitude | 20000 |
| Route | OLILA L621 RILAB DCT OSLOG |
| Aircraft | B738/M-SDE2E3FGHIRWXY/LB1 |
Departure
| Time | 2026-05-07 19:01 |
|---|---|
| Airport | Warsaw Chopin Airport (EPWA) |
Arrival
| Time | 2026-05-07 19:33 |
|---|---|
| Airport | Gdańsk Lech Wałęsa Airport (EPGD) |
| Time | Latitude | Longitude | Altitude | Speed | Heading |
|---|---|---|---|---|---|
| 2026-05-07 18:42 | 52.17001 | 20.97145 | 339 ft | 0 kts | 77° |
| 2026-05-07 18:51 | 52.16999 | 20.97135 | 338 ft | 2 kts | 77° |
| 2026-05-07 18:52 | 52.16996 | 20.97112 | 337 ft | 2 kts | 77° |
| 2026-05-07 18:52 | 52.16993 | 20.97090 | 337 ft | 2 kts | 76° |
| 2026-05-07 18:52 | 52.16988 | 20.97066 | 336 ft | 2 kts | 67° |
| 2026-05-07 18:52 | 52.16982 | 20.97044 | 334 ft | 2 kts | 64° |
| 2026-05-07 18:53 | 52.16980 | 20.97019 | 334 ft | 2 kts | 104° |
| 2026-05-07 18:53 | 52.16985 | 20.97000 | 333 ft | 2 kts | 129° |
| 2026-05-07 18:53 | 52.16992 | 20.96989 | 333 ft | 0 kts | 148° |
| 2026-05-07 18:53 | 52.16999 | 20.96983 | 333 ft | 0 kts | 152° |
| 2026-05-07 18:57 | 52.16964 | 20.97015 | 333 ft | 6 kts | 151° |
| 2026-05-07 18:58 | 52.16916 | 20.97062 | 334 ft | 9 kts | 135° |
| 2026-05-07 18:58 | 52.16861 | 20.97141 | 336 ft | 12 kts | 151° |
| 2026-05-07 18:58 | 52.16779 | 20.97215 | 336 ft | 13 kts | 151° |
| 2026-05-07 18:58 | 52.16687 | 20.97242 | 336 ft | 13 kts | 185° |
| 2026-05-07 18:59 | 52.16605 | 20.97269 | 336 ft | 12 kts | 127° |
| 2026-05-07 18:59 | 52.16568 | 20.97394 | 336 ft | 12 kts | 114° |
| 2026-05-07 18:59 | 52.16526 | 20.97543 | 336 ft | 16 kts | 114° |
| 2026-05-07 18:59 | 52.16480 | 20.97706 | 336 ft | 15 kts | 115° |
| 2026-05-07 19:00 | 52.16444 | 20.97809 | 335 ft | 9 kts | 145° |
| 2026-05-07 19:00 | 52.16364 | 20.97770 | 334 ft | 14 kts | 207° |
| 2026-05-07 19:00 | 52.16306 | 20.97681 | 333 ft | 10 kts | 276° |
| 2026-05-07 19:00 | 52.16322 | 20.97605 | 334 ft | 4 kts | 294° |
| 2026-05-07 19:01 | 52.16451 | 20.97148 | 336 ft | 91 kts | 294° |
| 2026-05-07 19:01 | 52.16833 | 20.95790 | 411 ft | 164 kts | 294° |
| 2026-05-07 19:01 | 52.17298 | 20.94102 | 1286 ft | 168 kts | 294° |
| 2026-05-07 19:01 | 52.17751 | 20.92390 | 2204 ft | 172 kts | 293° |
| 2026-05-07 19:02 | 52.18271 | 20.90632 | 3053 ft | 179 kts | 301° |
| 2026-05-07 19:02 | 52.19324 | 20.89252 | 3219 ft | 228 kts | 341° |
| 2026-05-07 19:02 | 52.20960 | 20.88489 | 3552 ft | 263 kts | 333° |
| 2026-05-07 19:02 | 52.22365 | 20.86821 | 5042 ft | 258 kts | 318° |
| 2026-05-07 19:03 | 52.23676 | 20.84745 | 6113 ft | 271 kts | 314° |
| 2026-05-07 19:03 | 52.24950 | 20.82591 | 7347 ft | 275 kts | 314° |
| 2026-05-07 19:03 | 52.26411 | 20.80530 | 8498 ft | 281 kts | 327° |
| 2026-05-07 19:03 | 52.28186 | 20.79345 | 9623 ft | 285 kts | 348° |
| 2026-05-07 19:04 | 52.30150 | 20.78776 | 10550 ft | 297 kts | 350° |
| 2026-05-07 19:04 | 52.32319 | 20.78118 | 10656 ft | 338 kts | 349° |
| 2026-05-07 19:04 | 52.34613 | 20.77503 | 11870 ft | 338 kts | 356° |
| 2026-05-07 19:04 | 52.36951 | 20.77648 | 12820 ft | 346 kts | 4° |
| 2026-05-07 19:05 | 52.39353 | 20.77945 | 13853 ft | 351 kts | 4° |
| 2026-05-07 19:05 | 52.41781 | 20.78240 | 14837 ft | 356 kts | 4° |
| 2026-05-07 19:05 | 52.44262 | 20.78538 | 15774 ft | 362 kts | 4° |
| 2026-05-07 19:05 | 52.46785 | 20.78382 | 16644 ft | 368 kts | 349° |
| 2026-05-07 19:06 | 52.49195 | 20.77086 | 17554 ft | 371 kts | 336° |
| 2026-05-07 19:06 | 52.53580 | 20.72604 | 19203 ft | 380 kts | 314° |
| 2026-05-07 19:06 | 52.55132 | 20.69142 | 19881 ft | 380 kts | 300° |
| 2026-05-07 19:07 | 52.56272 | 20.65103 | 20015 ft | 395 kts | 296° |
| 2026-05-07 19:07 | 52.57715 | 20.61274 | 20040 ft | 402 kts | 307° |
| 2026-05-07 19:07 | 52.59449 | 20.57705 | 20031 ft | 401 kts | 307° |
| 2026-05-07 19:07 | 52.61095 | 20.54032 | 20045 ft | 399 kts | 307° |
| 2026-05-07 19:08 | 52.62723 | 20.50361 | 20039 ft | 399 kts | 306° |
| 2026-05-07 19:08 | 52.64375 | 20.46623 | 20020 ft | 399 kts | 306° |
| 2026-05-07 19:08 | 52.65985 | 20.42974 | 20021 ft | 399 kts | 306° |
| 2026-05-07 19:08 | 52.67618 | 20.39265 | 20017 ft | 399 kts | 306° |
| 2026-05-07 19:09 | 52.69234 | 20.35590 | 20018 ft | 399 kts | 306° |
| 2026-05-07 19:09 | 52.70960 | 20.32007 | 20015 ft | 398 kts | 310° |
| 2026-05-07 19:09 | 52.72776 | 20.28588 | 20041 ft | 399 kts | 311° |
| 2026-05-07 19:09 | 52.74631 | 20.25151 | 20015 ft | 399 kts | 311° |
| 2026-05-07 19:10 | 52.76467 | 20.21762 | 20020 ft | 399 kts | 311° |
| 2026-05-07 19:10 | 52.78319 | 20.18344 | 20018 ft | 399 kts | 311° |
| 2026-05-07 19:10 | 52.80151 | 20.14960 | 20018 ft | 399 kts | 311° |
| 2026-05-07 19:10 | 52.81954 | 20.11489 | 20018 ft | 399 kts | 310° |
| 2026-05-07 19:11 | 52.83723 | 20.08002 | 20018 ft | 399 kts | 310° |
| 2026-05-07 19:11 | 52.85518 | 20.04450 | 20018 ft | 399 kts | 310° |
| 2026-05-07 19:11 | 52.87165 | 20.01186 | 20018 ft | 399 kts | 310° |
| 2026-05-07 19:11 | 52.88956 | 19.97628 | 20018 ft | 399 kts | 310° |
| 2026-05-07 19:12 | 52.90709 | 19.94142 | 20018 ft | 399 kts | 310° |
| 2026-05-07 19:12 | 52.92170 | 19.91234 | 20018 ft | 399 kts | 310° |
| 2026-05-07 19:12 | 52.93928 | 19.87729 | 20018 ft | 399 kts | 310° |
| 2026-05-07 19:12 | 52.95702 | 19.84187 | 20018 ft | 399 kts | 310° |
| 2026-05-07 19:13 | 52.97473 | 19.80646 | 20018 ft | 399 kts | 310° |
| 2026-05-07 19:13 | 52.99234 | 19.77123 | 20018 ft | 399 kts | 310° |
| 2026-05-07 19:13 | 53.01001 | 19.73579 | 20018 ft | 399 kts | 310° |
| 2026-05-07 19:13 | 53.02773 | 19.70021 | 20018 ft | 399 kts | 310° |
| 2026-05-07 19:14 | 53.04544 | 19.66463 | 20017 ft | 399 kts | 310° |
| 2026-05-07 19:14 | 53.06486 | 19.63246 | 20006 ft | 398 kts | 321° |
| 2026-05-07 19:14 | 53.08786 | 19.60673 | 20016 ft | 399 kts | 332° |
| 2026-05-07 19:14 | 53.11318 | 19.58865 | 20017 ft | 399 kts | 342° |
| 2026-05-07 19:15 | 53.14000 | 19.57873 | 20015 ft | 399 kts | 353° |
| 2026-05-07 19:15 | 53.16755 | 19.57158 | 20016 ft | 399 kts | 347° |
| 2026-05-07 19:15 | 53.19411 | 19.55998 | 20023 ft | 399 kts | 344° |
| 2026-05-07 19:15 | 53.22059 | 19.54654 | 20018 ft | 399 kts | 343° |
| 2026-05-07 19:16 | 53.24678 | 19.53262 | 20017 ft | 399 kts | 342° |
| 2026-05-07 19:16 | 53.27304 | 19.51845 | 19992 ft | 395 kts | 342° |
| 2026-05-07 19:16 | 53.29918 | 19.50427 | 19217 ft | 396 kts | 342° |
| 2026-05-07 19:16 | 53.32490 | 19.49028 | 18683 ft | 389 kts | 342° |
| 2026-05-07 19:17 | 53.35036 | 19.47640 | 18000 ft | 387 kts | 342° |
| 2026-05-07 19:17 | 53.37569 | 19.46258 | 17586 ft | 380 kts | 342° |
| 2026-05-07 19:17 | 53.40082 | 19.44884 | 17306 ft | 373 kts | 342° |
| 2026-05-07 19:17 | 53.42494 | 19.43564 | 17021 ft | 368 kts | 342° |
| 2026-05-07 19:18 | 53.44902 | 19.42245 | 16742 ft | 366 kts | 342° |
| 2026-05-07 19:18 | 53.47336 | 19.40910 | 16460 ft | 365 kts | 342° |
| 2026-05-07 19:18 | 53.49750 | 19.39585 | 16175 ft | 365 kts | 342° |
| 2026-05-07 19:18 | 53.52149 | 19.38266 | 15886 ft | 363 kts | 342° |
| 2026-05-07 19:19 | 53.54516 | 19.36963 | 15596 ft | 361 kts | 342° |
| 2026-05-07 19:19 | 53.56890 | 19.35655 | 15303 ft | 360 kts | 342° |
| 2026-05-07 19:19 | 53.58306 | 19.34873 | 15126 ft | 359 kts | 341° |
| 2026-05-07 19:19 | 53.60668 | 19.33570 | 14829 ft | 357 kts | 341° |
| 2026-05-07 19:20 | 53.63006 | 19.32277 | 14531 ft | 356 kts | 341° |
| 2026-05-07 19:20 | 53.65339 | 19.30986 | 14230 ft | 354 kts | 341° |
| 2026-05-07 19:20 | 53.67661 | 19.29699 | 13928 ft | 353 kts | 341° |
| 2026-05-07 19:20 | 53.69983 | 19.28411 | 13622 ft | 351 kts | 341° |
| 2026-05-07 19:21 | 53.72295 | 19.27128 | 13314 ft | 349 kts | 341° |
| 2026-05-07 19:21 | 53.74597 | 19.25848 | 13004 ft | 348 kts | 341° |
| 2026-05-07 19:21 | 53.76885 | 19.24574 | 12692 ft | 346 kts | 341° |
| 2026-05-07 19:21 | 53.79143 | 19.23316 | 12381 ft | 345 kts | 341° |
| 2026-05-07 19:22 | 53.81432 | 19.22039 | 12063 ft | 343 kts | 341° |
| 2026-05-07 19:22 | 53.83675 | 19.20786 | 11748 ft | 341 kts | 341° |
| 2026-05-07 19:22 | 53.85927 | 19.19526 | 11429 ft | 340 kts | 341° |
| 2026-05-07 19:22 | 53.88157 | 19.18278 | 11109 ft | 338 kts | 341° |
| 2026-05-07 19:23 | 53.90351 | 19.17048 | 10792 ft | 337 kts | 341° |
| 2026-05-07 19:23 | 53.92589 | 19.15793 | 10465 ft | 335 kts | 341° |
| 2026-05-07 19:23 | 53.94768 | 19.14569 | 10144 ft | 333 kts | 341° |
| 2026-05-07 19:23 | 53.96950 | 19.13342 | 9813 ft | 329 kts | 341° |
| 2026-05-07 19:24 | 53.99103 | 19.12130 | 9460 ft | 322 kts | 341° |
| 2026-05-07 19:24 | 54.01210 | 19.10943 | 9086 ft | 317 kts | 341° |
| 2026-05-07 19:24 | 54.03274 | 19.09779 | 8711 ft | 312 kts | 341° |
| 2026-05-07 19:24 | 54.05310 | 19.08629 | 8357 ft | 307 kts | 341° |
| 2026-05-07 19:25 | 54.07331 | 19.07486 | 8013 ft | 302 kts | 341° |
| 2026-05-07 19:25 | 54.09304 | 19.06370 | 7677 ft | 298 kts | 341° |
| 2026-05-07 19:25 | 54.11256 | 19.05264 | 7363 ft | 293 kts | 341° |
| 2026-05-07 19:25 | 54.13169 | 19.04180 | 7051 ft | 289 kts | 341° |
| 2026-05-07 19:26 | 54.15040 | 19.03118 | 6757 ft | 284 kts | 341° |
| 2026-05-07 19:26 | 54.16893 | 19.02065 | 6474 ft | 280 kts | 341° |
| 2026-05-07 19:26 | 54.18739 | 19.01015 | 6190 ft | 276 kts | 341° |
| 2026-05-07 19:26 | 54.20531 | 18.99995 | 5929 ft | 272 kts | 341° |
| 2026-05-07 19:27 | 54.22304 | 18.98985 | 5665 ft | 268 kts | 341° |
| 2026-05-07 19:27 | 54.24060 | 18.97963 | 5376 ft | 265 kts | 337° |
| 2026-05-07 19:27 | 54.25459 | 18.96214 | 4999 ft | 266 kts | 309° |
| 2026-05-07 19:27 | 54.26236 | 18.93661 | 4772 ft | 261 kts | 289° |
| 2026-05-07 19:28 | 54.26850 | 18.90778 | 4587 ft | 253 kts | 291° |
| 2026-05-07 19:28 | 54.27493 | 18.87988 | 4313 ft | 252 kts | 292° |
| 2026-05-07 19:28 | 54.28162 | 18.85207 | 4047 ft | 253 kts | 292° |
| 2026-05-07 19:28 | 54.28832 | 18.82484 | 3938 ft | 249 kts | 293° |
| 2026-05-07 19:29 | 54.29515 | 18.79730 | 3925 ft | 248 kts | 293° |
| 2026-05-07 19:29 | 54.30164 | 18.77106 | 3895 ft | 232 kts | 293° |
| 2026-05-07 19:29 | 54.30794 | 18.74611 | 3596 ft | 225 kts | 294° |
| 2026-05-07 19:29 | 54.31401 | 18.72196 | 3291 ft | 220 kts | 293° |
| 2026-05-07 19:30 | 54.31996 | 18.69822 | 3000 ft | 216 kts | 293° |
| 2026-05-07 19:30 | 54.32589 | 18.67446 | 2724 ft | 214 kts | 293° |
| 2026-05-07 19:30 | 54.33149 | 18.65204 | 2519 ft | 202 kts | 293° |
| 2026-05-07 19:30 | 54.33699 | 18.62993 | 2241 ft | 203 kts | 293° |
| 2026-05-07 19:31 | 54.34251 | 18.60776 | 1956 ft | 196 kts | 293° |
| 2026-05-07 19:31 | 54.34762 | 18.58721 | 1702 ft | 179 kts | 293° |
| 2026-05-07 19:31 | 54.35221 | 18.56871 | 1464 ft | 162 kts | 293° |
| 2026-05-07 19:31 | 54.35641 | 18.55177 | 1215 ft | 147 kts | 293° |
| 2026-05-07 19:32 | 54.36034 | 18.53595 | 990 ft | 142 kts | 293° |
| 2026-05-07 19:32 | 54.36427 | 18.52000 | 865 ft | 150 kts | 293° |
| 2026-05-07 19:32 | 54.36834 | 18.50345 | 692 ft | 151 kts | 294° |
| 2026-05-07 19:32 | 54.37242 | 18.48701 | 483 ft | 146 kts | 293° |
| 2026-05-07 19:33 | 54.37587 | 18.47308 | 449 ft | 100 kts | 293° |
| 2026-05-07 19:33 | 54.37786 | 18.46498 | 447 ft | 51 kts | 293° |
| 2026-05-07 19:33 | 54.37906 | 18.46036 | 446 ft | 39 kts | 300° |
| 2026-05-07 19:33 | 54.38068 | 18.45742 | 446 ft | 7 kts | 322° |
| 2026-05-07 19:34 | 54.38128 | 18.45704 | 447 ft | 13 kts | 19° |
| 2026-05-07 19:34 | 54.38118 | 18.45887 | 448 ft | 21 kts | 113° |
| 2026-05-07 19:34 | 54.38064 | 18.46097 | 448 ft | 17 kts | 115° |
| 2026-05-07 19:34 | 54.38050 | 18.46195 | 448 ft | 4 kts | 43° |
| 2026-05-07 19:35 | 54.38071 | 18.46215 | 448 ft | 4 kts | 28° |
| 2026-05-07 19:35 | 54.38098 | 18.46235 | 448 ft | 2 kts | 23° |
| 2026-05-07 19:35 | 54.38104 | 18.46240 | 448 ft | 0 kts | 23° |